Etusivu
METAR-TAF:

METAR-TAF

Lentoasemat :

Blue River, Brittiläinen Kolumbia, Kanada

Leveyspiiri: 52-08N, Pituuspiiri: 119-18W, korkeus merenpinnasta: 679 m

Tämänhetkinen sää

Tämä raportti tehtiin 10 tuntia ja 13 minuuttia sitten, kello 01.00 UTC
Tuuli 3 kn pohjoisesta/koillisesta, vaihdellen pohjoisen ja idän välillä
Lämpötila 6°C
Kosteus 49%
Ilmanpaine 1006 hPa
Näkyvyys: 24.1 km
Hajonneita pilviä 8000 ft:n korkeudessa
Pilvistä 11000 ft:n korkeudessa

METAR: CYCP 070100Z 02003KT 350V080 15SM BKN080 OVC110 06/M04 A2971 RMK AC5AC3 LAST STFD OBS/NEXT 071300Z SLP094

Aika: 04:13 (11:13 UTC)


TAF: puuttuu

Säähavainnot ja -ennusteet yli 4000 lentoasemalta (METAR- ja TAF-raportit).

Käytössä olevat sääasemat on merkitty karttaan keltaisilla ja punaisilla pisteillä.

Aseta hiiri pisteen päälle nähdäksesi sääaseman nimen.

Klikkaa sitten nähdäksesi säähavainnot ja -ennusteet.

Kartan vaihtaminen: klikkaa mustalla rastilla varustettuja vihreitä pisteitä, niin voit zoomata sisään; viivalla varustettua vihreää pistettä, niin voit zoomata ulos tai vihreitä nuolia, niin pääset viereisille kartoille.


METAR-TAF: